• Join FlightAware (Why Join?)
  • Login
  • US Flag 
07:32PM EDT


 

Airport Tracker/Info


-or-


 

Live Flight TrackerFlight Track Log ✈ EJA933 ✈ 16-Jun-2013 ✈ MMSD / SJD - CYLW

Flight Track Log - Related Links

Times and Time Zones

All times are in EDT time to prevent confusion due to time zone crossing. See the EJA933 flight status page for this flight to view local times or setup timezone preferences in your user account.

Time Position Orientation Groundspeed Altitude Reporting Facility
EDT Latitude Longitude Course Direction KTS MPH feet Rate Location/Type
04:13PM 30.5356 -110.9381 359° North 526 605 40,000  Level Albuquerque Center
04:14PM 30.6828 -110.9411 359° North 529 609 40,000  Level Albuquerque Center
04:15PM 30.8603 -110.9431 359° North 531 611 40,000  Level Albuquerque Center
04:16PM 31.0078 -110.9458 359° North 531 611 40,000  Level Albuquerque Center
04:17PM 31.1558 -110.9481 359° North 532 612 40,000  Level Albuquerque Center
04:18PM 31.3042 -110.9503 359° North 532 612 40,000  Level Albuquerque Center
04:19PM 31.4558 -110.9422 North 543 625 40,100 360 Climbing Albuquerque Center
04:20PM 31.5986 -110.9358 North 536 617 40,800 720 Climbing Albuquerque Center
04:21PM 31.7642 -110.9314 North 525 604 41,700 720 Climbing Albuquerque Center
04:22PM 31.9172 -110.9244 North 521 600 42,400 600 Climbing Albuquerque Center
04:23PM 32.0617 -110.9178 North 520 598 43,000 240 Climbing Albuquerque Center
04:24PM 32.1917 -110.9664 342° North 498 573 43,000  Level Albuquerque Center
04:25PM 32.3136 -111.0381 334° Northwest 491 565 43,000  Level Albuquerque Center
04:26PM 32.4353 -111.1114 333° Northwest 491 565 43,000  Level Albuquerque Center
04:27PM 32.5844 -111.1983 334° Northwest 496 571 43,000  Level Albuquerque Center
04:28PM 32.7064 -111.2725 333° Northwest 495 570 43,000  Level Albuquerque Center
04:29PM 32.8308 -111.3428 335° Northwest 495 570 43,000  Level Albuquerque Center
04:30PM 32.9539 -111.4169 333° Northwest 496 571 43,000  Level Albuquerque Center
04:31PM 33.0781 -111.4919 333° Northwest 499 574 43,000  Level Albuquerque Center
04:32PM 33.2022 -111.5647 334° Northwest 497 572 43,000  Level Albuquerque Center
04:33PM 33.3244 -111.6389 333° Northwest 495 570 43,000  Level Albuquerque Center
04:35PM 33.4719 -111.7297 333° Northwest 495 570 43,000  Level Albuquerque Center
04:36PM 33.5944 -111.8028 334° Northwest 492 566 43,000  Level Albuquerque Center
04:37PM 33.7258 -111.8817 333° Northwest 488 562 43,000  Level Albuquerque Center
04:38PM 33.8472 -111.9550 333° Northwest 490 564 43,000  Level Albuquerque Center
04:39PM 33.9647 -112.0283 333° Northwest 492 566 43,000  Level Albuquerque Center
04:40PM 34.0889 -112.1039 333° Northwest 492 566 43,000  Level Albuquerque Center
04:41PM 34.2117 -112.1781 333° Northwest 491 565 43,000  Level Albuquerque Center
04:42PM 34.3339 -112.2533 333° Northwest 492 566 43,000  Level Albuquerque Center
04:43PM 34.4553 -112.3281 333° Northwest 490 564 43,000  Level Albuquerque Center
04:44PM 34.5892 -112.4108 333° Northwest 491 565 43,000  Level Albuquerque Center
04:45PM 34.7100 -112.4850 333° Northwest 489 563 43,000  Level Albuquerque Center
04:46PM 34.8611 -112.5628 337° Northwest 493 567 43,000  Level Albuquerque Center
04:47PM 34.9872 -112.6264 338° Northwest 493 567 43,000  Level Albuquerque Center
04:48PM 35.1125 -112.6917 337° Northwest 493 567 43,000  Level Albuquerque Center
04:49PM 35.2378 -112.7561 337° Northwest 494 568 43,000  Level Albuquerque Center
04:50PM 35.3828 -112.8325 337° Northwest 495 570 43,000  Level Albuquerque Center
04:51PM 35.4617 -112.8725 338° Northwest 494 568 43,000  Level Los Angeles Center
04:52PM 35.6006 -112.9467 337° Northwest 495 570 43,000  Level Los Angeles Center
04:53PM 35.7344 -113.0161 337° Northwest 499 574 43,000  Level Los Angeles Center
04:54PM 35.8606 -113.0833 337° Northwest 499 574 43,000  Level Los Angeles Center
04:55PM 35.9983 -113.1564 337° Northwest 500 575 43,000  Level Los Angeles Center
04:56PM 36.1258 -113.2247 337° Northwest 498 573 43,000  Level Los Angeles Center
04:57PM 36.2644 -113.2986 337° Northwest 497 572 43,000  Level Los Angeles Center
04:58PM 36.3917 -113.3656 337° Northwest 497 572 43,000  Level Los Angeles Center
04:59PM 36.5058 -113.4283 336° Northwest 491 565 43,000  Level Los Angeles Center
05:00PM 36.6586 -113.5094 337° Northwest 492 566 43,000  Level Los Angeles Center
05:01PM 36.7864 -113.5803 336° Northwest 498 573 43,000  Level Los Angeles Center
05:02PM 36.9144 -113.6497 337° Northwest 499 574 43,000  Level Los Angeles Center
05:03PM 37.0431 -113.7208 336° Northwest 501 577 43,000  Level Los Angeles Center
05:04PM 37.1722 -113.7914 336° Northwest 503 579 43,000  Level Los Angeles Center
05:05PM 37.3017 -113.8633 336° Northwest 505 581 43,000  Level Los Angeles Center
05:06PM 37.4564 -113.9483 336° Northwest 505 581 43,000  Level Los Angeles Center
05:07PM 37.5839 -114.0200 336° Northwest 501 577 43,000  Level Los Angeles Center
05:08PM 37.7117 -114.0911 336° Northwest 499 574 43,000  Level Los Angeles Center
05:09PM 37.8383 -114.1625 336° Northwest 497 572 43,000  Level Los Angeles Center
05:10PM 37.9400 -114.2189 336° Northwest 498 573 43,000  Level Salt Lake Center
05:11PM 38.0919 -114.3053 336° Northwest 497 572 43,000  Level Salt Lake Center
05:12PM 38.2183 -114.3786 335° Northwest 498 573 43,000  Level Salt Lake Center
05:13PM 38.3508 -114.4425 339° North 504 580 43,000  Level Salt Lake Center
05:14PM 38.4875 -114.4981 342° North 510 587 43,000  Level Salt Lake Center
05:15PM 38.6239 -114.5575 341° North 515 593 43,000  Level Salt Lake Center
05:16PM 38.7619 -114.6122 343° North 516 594 43,000  Level Salt Lake Center
05:17PM 38.8975 -114.6719 341° North 513 590 43,000  Level Salt Lake Center
05:18PM 39.0583 -114.7439 341° North 511 588 43,000  Level Salt Lake Center
05:19PM 39.1767 -114.7944 342° North 512 589 43,000  Level Salt Lake Center
05:21PM 39.3261 -114.8733 338° Northwest 514 592 43,000  Level Salt Lake Center
05:22PM 39.4356 -114.9661 327° Northwest 500 575 43,000  Level Salt Lake Center
05:23PM 39.5658 -115.0764 327° Northwest 498 573 43,000  Level Salt Lake Center
05:24PM 39.6742 -115.1725 326° Northwest 493 567 43,000  Level Salt Lake Center
05:25PM 39.8028 -115.2836 326° Northwest 496 571 43,000  Level Salt Lake Center
05:26PM 39.9122 -115.3814 326° Northwest 497 572 43,000  Level Salt Lake Center
05:27PM 40.0392 -115.4933 326° Northwest 495 570 43,000  Level Salt Lake Center
05:28PM 40.1478 -115.5897 326° Northwest 494 568 43,000  Level Salt Lake Center
05:29PM 40.2747 -115.7031 326° Northwest 495 570 43,000  Level Salt Lake Center
05:30PM 40.3828 -115.7994 326° Northwest 493 567 43,000  Level Salt Lake Center
05:31PM 40.5061 -115.9139 325° Northwest 490 564 43,000  Level Salt Lake Center
05:32PM 40.6144 -116.0106 326° Northwest 493 567 43,000  Level Salt Lake Center
05:33PM 40.7406 -116.1244 326° Northwest 495 570 43,000  Level Salt Lake Center
05:34PM 40.8472 -116.2231 325° Northwest 494 568 43,000  Level Salt Lake Center
05:35PM 40.9736 -116.3381 326° Northwest 495 570 43,000  Level Salt Lake Center
05:36PM 41.0828 -116.4383 325° Northwest 499 574 43,000  Level Salt Lake Center
05:37PM 41.1903 -116.5392 325° Northwest 498 573 43,000  Level Salt Lake Center
05:38PM 41.3164 -116.6550 325° Northwest 494 568 43,000  Level Salt Lake Center
05:39PM 41.4253 -116.7564 325° Northwest 499 574 43,000  Level Salt Lake Center
05:40PM 41.5519 -116.8758 325° Northwest 499 574 43,000  Level Salt Lake Center
05:41PM 41.6606 -116.9772 325° Northwest 499 574 43,000  Level Salt Lake Center
05:42PM 41.7889 -117.0950 326° Northwest 501 577 43,000  Level Salt Lake Center
05:43PM 41.8967 -117.2006 324° Northwest 502 578 43,000  Level Salt Lake Center
05:44PM 42.0236 -117.3211 325° Northwest 500 575 43,000  Level Salt Lake Center
05:45PM 42.1319 -117.4264 324° Northwest 501 577 43,000  Level Salt Lake Center
05:46PM 42.2517 -117.5392 325° Northwest 502 578 43,000  Level Salt Lake Center
05:47PM 42.3794 -117.6642 324° Northwest 506 582 43,000  Level Salt Lake Center
05:48PM 42.4886 -117.7692 325° Northwest 503 579 43,000  Level Salt Lake Center
05:49PM 42.6028 -117.8667 328° Northwest 506 582 43,000  Level Salt Lake Center
05:50PM 42.7589 -117.9242 345° North 519 597 43,000  Level Salt Lake Center
05:51PM 42.8947 -117.9692 346° North 524 603 43,000  Level Salt Lake Center
05:53PM 43.0542 -118.0219 346° North 527 606 43,000  Level Salt Lake Center
05:54PM 43.1894 -118.0667 346° North 523 602 43,000  Level Salt Lake Center
05:55PM 43.3486 -118.1200 346° North 526 605 43,000  Level Salt Lake Center
05:56PM 43.4847 -118.1658 346° North 525 604 43,000  Level Salt Lake Center
05:57PM 43.6200 -118.2114 346° North 523 602 43,000  Level Salt Lake Center
05:58PM 43.7794 -118.2658 346° North 526 605 43,000  Level Salt Lake Center
05:59PM 43.9144 -118.3114 346° North 521 600 43,000  Level Salt Lake Center
06:00PM 44.0661 -118.3622 346° North 526 605 43,000  Level Salt Lake Center
06:01PM 44.2047 -118.4106 346° North 521 600 43,000  Level Seattle Center
06:02PM 44.3456 -118.4589 346° North 522 601 43,000  Level Seattle Center
06:03PM 44.4889 -118.5092 346° North 528 608 43,000  Level Salt Lake Center
06:04PM 44.6289 -118.5583 346° North 523 602 43,000  Level Seattle Center
06:05PM 44.7697 -118.6075 346° North 525 604 43,000  Level Seattle Center
06:06PM 44.9100 -118.6575 346° North 523 602 43,000  Level Seattle Center
06:07PM 45.0500 -118.7072 346° North 523 602 43,000  Level Seattle Center
06:08PM 45.1900 -118.7575 346° North 523 602 43,000  Level Seattle Center
06:09PM 45.3583 -118.8175 346° North 524 603 43,000  Level Seattle Center
06:10PM 45.4981 -118.8678 346° North 523 602 43,000  Level Seattle Center
06:11PM 45.6375 -118.9189 346° North 522 601 43,000  Level Seattle Center
06:12PM 45.7781 -118.9614 348° North 522 601 43,000  Level Seattle Center
06:13PM 45.9214 -118.9950 351° North 522 601 43,000  Level Seattle Center
06:14PM 46.0661 -119.0281 351° North 528 608 43,000  Level Seattle Center
06:15PM 46.2092 -119.0644 350° North 526 605 43,000  Level Seattle Center
06:16PM 46.3531 -119.0997 350° North 526 605 43,000  Level Seattle Center
06:17PM 46.4967 -119.1356 350° North 528 608 43,000  Level Seattle Center
06:18PM 46.6694 -119.1781 350° North 526 605 43,000  Level Seattle Center
06:19PM 46.8064 -119.2119 350° North 524 603 43,000  Level Seattle Center
06:20PM 46.9497 -119.2492 350° North 523 602 43,000  Level Seattle Center
06:21PM 47.0933 -119.2847 350° North 524 603 43,000  Level Seattle Center
06:22PM 47.2383 -119.3156 352° North 527 606 43,000  Level Seattle Center
06:23PM 47.3853 -119.3200 359° North 528 608 43,000  Level Seattle Center
06:24PM 47.5322 -119.3239 359° North 529 609 43,000 -60 Level Seattle Center
06:25PM 47.6786 -119.3256 360° North 528 608 42,900 -180 Descending Seattle Center
06:26PM 47.8258 -119.3289 359° North 530 610 42,700 -1,260 Descending Seattle Center
06:27PM 47.9736 -119.3333 359° North 531 611 40,400 -2,760 Descending Seattle Center
06:28PM 48.1453 -119.3350 360° North 517 595 37,200 -2,940 Descending Seattle Center
06:29PM 48.2836 -119.3381 359° North 504 580 34,500 -2,760 Descending Seattle Center
06:30PM 48.4222 -119.3417 359° North 500 575 31,700 -2,760 Descending Seattle Center
06:31PM 48.5658 -119.3456 359° North 508 585 28,900 -2,760 Descending Seattle Center
06:32PM 48.7097 -119.3478 359° North 516 594 26,100 -2,880 Descending Seattle Center
06:33PM 48.8481 -119.3472 360° North 509 586 23,100 -3,360 Descending Seattle Center
06:34PM 48.9500 -119.3167 11° North 460 529 19,700 -3,600 Descending Vancouver Center
06:35PM 49.0667 -119.3333 355° North 430 495 16,300 -2,880 Descending Vancouver Center
06:36PM 49.1833 -119.3333 360° North 400 460 14,000 -2,100 Descending Vancouver Center
06:37PM 49.2667 -119.3500 353° North 370 426 12,100 -2,040 Descending Vancouver Center
06:38PM 49.3667 -119.3333 North 330 380 10,000 -1,080 Descending Vancouver Center
06:39PM 49.4500 -119.3333 360° North 310 357 10,000  Level Vancouver Center
06:40PM 49.5333 -119.3500 353° North 300 345 10,000 -840 Level Vancouver Center
06:41PM 49.6000 -119.3333 North 270 311 8,400 -1,140 Descending Vancouver Center
06:42PM 49.6667 -119.3667 342° North 240 276 7,800 -660 Descending Vancouver Center
06:43PM 49.7333 -119.3500 North 220 253 7,100 -1,140 Descending Vancouver Center
06:44PM 49.7833 -119.3500 360° North 200 230 5,600 -1,500 Descending Vancouver Center
06:45PM 49.8333 -119.3500 360° North 170 196 4,200 -1,440 Descending Vancouver Center
06:46PM 49.8667 -119.3500 360° North 150 173 2,800 -1,200 Descending Vancouver Center
06:47PM 49.9000 -119.3667 342° North 140 161 1,900 -720 Descending Vancouver Center
06:48PM 49.9333 -119.3667 360° North 110 127 1,400 -300 Descending Vancouver Center
06:49PM 49.9500 -119.3667 360° North 20 23 1,400  Level Vancouver Center